Time;durP1;ratioP1;P1;durP2;ratioP2;P2;SDS_P1;SDS_P2;PMS_P1;PMS_P2;Temp;Humidity;BMP_temperature;BMP_pressure;BME280_temperature;BME280_humidity;BME280_pressure;Samples;Min_cycle;Max_cycle;Signal;HPM_P1;HPM_P2
2022/08/20 00:01:48;;;;;;;5.40;4.90;;;;;;;17.64;80.56;98370.66;4182488;28;20043;-72
2022/08/20 00:03:49;;;;;;;6.90;4.57;;;;;;;17.60;80.75;98376.28;4184300;28;20072;-72
2022/08/20 00:06:02;;;;;;;5.35;4.75;;;;;;;17.58;80.87;98373.13;4183816;28;20052;-72
2022/08/20 00:08:03;;;;;;;6.95;5.38;;;;;;;17.59;80.65;98373.94;4182308;28;20086;-72
2022/08/20 00:10:06;;;;;;;6.75;5.53;;;;;;;17.53;80.92;98365.22;4179490;28;20384;-72
2022/08/20 00:12:08;;;;;;;6.30;5.20;;;;;;;17.52;81.09;98374.06;4183710;28;20217;-72
2022/08/20 00:14:09;;;;;;;5.90;4.80;;;;;;;17.53;81.22;98384.81;4183693;28;20028;-72
2022/08/20 00:16:11;;;;;;;6.03;4.47;;;;;;;17.48;81.30;98385.31;4182376;28;20462;-72
2022/08/20 00:18:12;;;;;;;7.22;5.13;;;;;;;17.47;80.71;98380.94;4184462;28;20056;-72
2022/08/20 00:20:12;;;;;;;7.07;5.25;;;;;;;17.53;80.11;98381.22;4180627;28;20020;-72
2022/08/20 00:22:13;;;;;;;6.90;5.20;;;;;;;17.55;79.71;98392.78;4182010;28;20041;-71
2022/08/20 00:24:13;;;;;;;7.38;4.68;;;;;;;17.55;79.56;98388.00;4183531;28;20044;-72
2022/08/20 00:26:14;;;;;;;5.53;4.75;;;;;;;17.61;79.18;98391.06;4182252;28;20133;-72
2022/08/20 00:28:15;;;;;;;6.45;4.97;;;;;;;17.63;79.09;98389.44;4183613;28;20033;-72
2022/08/20 00:30:17;;;;;;;7.30;5.22;;;;;;;17.63;79.78;98392.25;4181364;28;20025;-72
2022/08/20 00:32:17;;;;;;;5.80;5.03;;;;;;;17.58;80.36;98378.72;4182236;28;20567;-72
2022/08/20 00:34:18;;;;;;;9.35;6.00;;;;;;;17.53;81.00;98387.59;4181161;28;20044;-72
2022/08/20 00:36:19;;;;;;;9.95;5.75;;;;;;;17.41;83.15;98389.03;4182715;28;20035;-72
2022/08/20 00:38:19;;;;;;;8.25;4.80;;;;;;;17.31;82.91;98378.03;4183250;28;20043;-72
2022/08/20 00:40:24;;;;;;;7.45;6.07;;;;;;;17.23;82.82;98387.75;4183633;28;20024;-72
2022/08/20 00:42:25;;;;;;;9.30;5.65;;;;;;;17.26;82.33;98386.88;4182323;28;20132;-72
2022/08/20 00:44:25;;;;;;;5.95;5.35;;;;;;;17.30;81.54;98377.25;4183881;28;20903;-72
2022/08/20 00:46:27;;;;;;;6.72;5.53;;;;;;;17.29;83.93;98380.44;4182489;28;20044;-72
2022/08/20 00:48:31;;;;;;;11.48;5.75;;;;;;;17.18;84.25;98375.03;4182085;28;20430;-72
2022/08/20 00:50:36;;;;;;;9.75;5.13;;;;;;;17.17;84.29;98378.25;4183944;28;20052;-72
2022/08/20 00:52:38;;;;;;;7.10;5.72;;;;;;;17.19;84.35;98378.63;4182558;28;20056;-72
2022/08/20 00:54:54;;;;;;;7.50;5.18;;;;;;;17.18;83.95;98380.63;4182574;28;20043;-72
2022/08/20 00:56:59;;;;;;;5.25;4.75;;;;;;;17.17;83.80;98387.44;4182699;28;20457;-72
2022/08/20 00:59:03;;;;;;;7.65;5.10;;;;;;;17.20;83.90;98385.78;4180870;28;20675;-72
2022/08/20 01:01:05;;;;;;;6.72;5.60;;;;;;;17.16;84.48;98380.28;4183126;28;20043;-72
2022/08/20 01:03:08;;;;;;;6.95;5.53;;;;;;;17.14;84.97;98382.69;4182921;28;20123;-72
2022/08/20 01:05:10;;;;;;;10.85;5.45;;;;;;;17.06;85.33;98381.25;4184560;28;20041;-72
2022/08/20 01:07:10;;;;;;;6.10;5.47;;;;;;;17.01;85.57;98382.50;4186902;28;20394;-72
2022/08/20 01:09:12;;;;;;;9.88;6.18;;;;;;;17.00;85.37;98386.50;4182736;28;21095;-72
2022/08/20 01:11:17;;;;;;;5.93;4.93;;;;;;;16.99;85.34;98384.16;4183457;28;20044;-72
2022/08/20 01:13:20;;;;;;;6.20;5.50;;;;;;;17.00;84.56;98377.34;4184956;28;20078;-72
2022/08/20 01:15:23;;;;;;;9.82;5.45;;;;;;;17.04;83.87;98378.84;4184778;28;20048;-72
2022/08/20 01:17:25;;;;;;;8.10;5.57;;;;;;;17.06;83.71;98384.03;4186377;28;20339;-72
2022/08/20 01:19:42;;;;;;;12.38;6.32;;;;;;;17.09;83.21;98385.97;4186476;28;20048;-72
2022/08/20 01:21:42;;;;;;;9.48;4.90;;;;;;;17.09;82.92;98381.16;4184670;28;20171;-72
2022/08/20 01:23:52;;;;;;;9.05;5.35;;;;;;;17.08;83.19;98379.59;4184969;28;20036;-72
2022/08/20 01:26:02;;;;;;;12.75;6.07;;;;;;;17.09;82.99;98383.19;4185005;28;20490;-72
2022/08/20 01:28:03;;;;;;;9.93;6.20;;;;;;;17.10;82.60;98384.75;4183629;28;20435;-72
2022/08/20 01:30:05;;;;;;;8.30;6.22;;;;;;;17.12;82.72;98385.09;4184467;28;20102;-72
2022/08/20 01:32:06;;;;;;;6.40;5.80;;;;;;;17.14;82.27;98388.28;4185135;28;20028;-72
2022/08/20 01:34:10;;;;;;;9.60;5.72;;;;;;;17.17;82.21;98392.25;4186457;28;20291;-72
2022/08/20 01:36:14;;;;;;;6.60;5.47;;;;;;;17.19;82.17;98393.38;4186669;28;20020;-72
2022/08/20 01:38:15;;;;;;;9.23;6.75;;;;;;;17.18;82.25;98383.41;4184919;28;20079;-72
2022/08/20 01:40:26;;;;;;;15.27;6.97;;;;;;;17.23;82.41;98394.13;4185217;28;20319;-72
2022/08/20 01:42:31;;;;;;;11.85;6.13;;;;;;;17.21;82.57;98387.38;4183646;28;20037;-72
2022/08/20 01:44:33;;;;;;;14.18;6.70;;;;;;;17.17;82.93;98389.44;4185577;28;20083;-72
2022/08/20 01:46:37;;;;;;;21.38;7.07;;;;;;;17.17;82.86;98387.44;4186360;28;20155;-72
2022/08/20 01:48:39;;;;;;;17.17;6.15;;;;;;;17.11;82.76;98377.94;4184247;28;20658;-72
2022/08/20 01:50:43;;;;;;;18.20;6.93;;;;;;;17.18;81.54;98391.03;4184138;28;20531;-72
2022/08/20 01:52:55;;;;;;;9.50;6.43;;;;;;;17.19;81.24;98392.59;4185826;28;20097;-72
2022/08/20 01:54:56;;;;;;;13.15;5.57;;;;;;;17.17;80.95;98387.44;4184799;28;20380;-72
2022/08/20 01:57:01;;;;;;;19.90;5.70;;;;;;;17.17;80.68;98384.63;4185658;28;20063;-72
2022/08/20 01:59:07;;;;;;;13.02;6.07;;;;;;;17.13;80.90;98389.50;4185733;28;20048;-72
2022/08/20 02:01:34;;;;;;;7.85;5.22;;;;;;;17.13;81.21;98390.31;4185292;28;20641;-72
2022/08/20 02:03:35;;;;;;;13.10;5.78;;;;;;;17.11;81.45;98394.72;4185392;28;20592;-72
2022/08/20 02:05:35;;;;;;;11.00;5.93;;;;;;;17.09;82.04;98397.94;4185869;28;20127;-72
2022/08/20 02:07:36;;;;;;;7.20;5.57;;;;;;;17.06;81.95;98395.22;4185758;28;20377;-72
2022/08/20 02:09:38;;;;;;;5.65;4.80;;;;;;;17.06;81.86;98398.00;4183179;28;20365;-72
2022/08/20 02:11:39;;;;;;;8.03;5.43;;;;;;;17.10;80.94;98404.31;4185539;28;20063;-72
2022/08/20 02:13:40;;;;;;;7.95;5.03;;;;;;;17.09;80.47;98397.94;4185356;28;20032;-72
2022/08/20 02:15:41;;;;;;;7.60;5.13;;;;;;;17.12;80.45;98401.88;4182366;28;20048;-72
2022/08/20 02:17:41;;;;;;;8.48;4.88;;;;;;;17.15;80.08;98392.66;4186355;28;20102;-72
2022/08/20 02:19:46;;;;;;;5.35;4.63;;;;;;;17.18;79.82;98397.41;4182446;28;20067;-72
2022/08/20 02:21:52;;;;;;;7.63;4.82;;;;;;;17.23;79.11;98405.31;4183690;28;20052;-72
2022/08/20 02:23:52;;;;;;;7.22;5.10;;;;;;;17.28;79.84;98399.22;4183829;28;20472;-72
2022/08/20 02:25:53;;;;;;;8.35;5.78;;;;;;;17.24;82.19;98401.31;4183697;28;20304;-72
2022/08/20 02:27:54;;;;;;;10.27;6.03;;;;;;;17.17;82.19;98397.81;4184092;28;20044;-72
2022/08/20 02:29:55;;;;;;;6.77;5.37;;;;;;;17.09;82.30;98413.91;4180969;28;20052;-72
2022/08/20 02:31:55;;;;;;;8.50;5.03;;;;;;;17.05;81.82;98400.00;4180918;28;20048;-72
2022/08/20 02:33:56;;;;;;;7.20;5.95;;;;;;;17.06;81.32;98401.59;4185185;28;20037;-72
2022/08/20 02:35:56;;;;;;;8.35;5.47;;;;;;;17.03;82.00;98410.00;4183185;28;20047;-71
2022/08/20 02:37:57;;;;;;;6.38;5.50;;;;;;;16.98;82.05;98408.50;4186323;28;20037;-72
2022/08/20 02:39:57;;;;;;;6.00;5.10;;;;;;;16.94;82.39;98420.94;4183313;28;20052;-72
2022/08/20 02:41:58;;;;;;;7.72;5.28;;;;;;;16.89;82.43;98411.03;4185911;28;20051;-72
2022/08/20 02:43:58;;;;;;;7.18;5.00;;;;;;;16.83;81.87;98407.13;4185268;28;20226;-72
2022/08/20 02:45:59;;;;;;;7.32;4.68;;;;;;;16.79;81.15;98407.16;4184992;28;20048;-72
2022/08/20 02:47:59;;;;;;;5.47;4.47;;;;;;;16.77;81.13;98414.41;4183937;28;20033;-72
2022/08/20 02:50:00;;;;;;;5.38;4.43;;;;;;;16.68;81.55;98400.91;4183035;28;20110;-72
2022/08/20 02:52:00;;;;;;;6.72;4.78;;;;;;;16.63;81.76;98414.56;4183524;28;20048;-72
2022/08/20 02:54:01;;;;;;;6.75;5.10;;;;;;;16.62;81.45;98408.19;4183338;28;20056;-72
2022/08/20 02:56:02;;;;;;;5.32;4.65;;;;;;;16.62;82.18;98407.41;4183036;28;20040;-72
2022/08/20 02:58:02;;;;;;;8.40;4.85;;;;;;;16.62;82.36;98415.78;4184232;28;20028;-72
2022/08/20 03:00:13;;;;;;;5.70;5.03;;;;;;;16.65;82.09;98406.56;4183479;28;20039;-72
2022/08/20 03:02:14;;;;;;;8.30;5.25;;;;;;;16.70;81.89;98411.69;4184835;28;20511;-72
2022/08/20 03:04:15;;;;;;;6.43;5.65;;;;;;;16.67;82.84;98404.16;4183121;28;20064;-72
2022/08/20 03:06:15;;;;;;;8.18;5.63;;;;;;;16.53;83.72;98417.09;4183649;28;20040;-72
2022/08/20 03:08:16;;;;;;;6.78;5.40;;;;;;;16.38;84.37;98410.09;4185106;28;20449;-72
2022/08/20 03:10:20;;;;;;;6.00;5.28;;;;;;;16.34;83.95;98412.16;4182083;28;20147;-72
2022/08/20 03:12:20;;;;;;;5.55;5.05;;;;;;;16.23;84.98;98412.28;4182533;28;20036;-72
2022/08/20 03:14:21;;;;;;;7.90;5.63;;;;;;;16.22;84.03;98413.50;4185213;28;20304;-72
2022/08/20 03:16:21;;;;;;;8.25;5.63;;;;;;;16.18;84.57;98409.94;4185604;28;20059;-72
2022/08/20 03:18:24;;;;;;;9.25;5.90;;;;;;;16.08;86.14;98412.88;4185495;28;20084;-72
2022/08/20 03:20:26;;;;;;;8.55;5.22;;;;;;;16.01;86.05;98406.16;4184377;28;20052;-72
2022/08/20 03:22:26;;;;;;;7.95;5.63;;;;;;;15.96;86.10;98411.41;4184718;28;20296;-72
2022/08/20 03:24:26;;;;;;;7.93;5.43;;;;;;;15.89;85.79;98401.13;4185659;28;20047;-72
2022/08/20 03:26:27;;;;;;;7.22;5.07;;;;;;;15.89;85.15;98403.94;4186041;28;20051;-72
2022/08/20 03:28:27;;;;;;;8.27;4.88;;;;;;;15.87;85.17;98405.53;4184795;28;20393;-71
2022/08/20 03:30:29;;;;;;;10.68;7.03;;;;;;;15.87;85.22;98405.53;4186418;28;20053;-72
2022/08/20 03:32:29;;;;;;;13.52;5.75;;;;;;;15.88;85.29;98407.09;4185398;28;20113;-72
2022/08/20 03:34:29;;;;;;;10.43;5.35;;;;;;;15.83;85.21;98397.22;4186314;28;20382;-72
2022/08/20 03:36:30;;;;;;;12.23;5.20;;;;;;;15.84;84.57;98398.00;4186491;28;20631;-72
2022/08/20 03:38:31;;;;;;;14.50;5.53;;;;;;;15.83;84.18;98391.63;4184266;28;20076;-72
2022/08/20 03:40:33;;;;;;;14.80;5.18;;;;;;;15.81;83.92;98396.84;4185432;28;20070;-71
2022/08/20 03:42:33;;;;;;;9.13;4.65;;;;;;;15.85;83.10;98392.00;4186056;28;20053;-72
2022/08/20 03:44:35;;;;;;;17.92;5.93;;;;;;;15.84;82.81;98398.00;4185976;28;20044;-72
2022/08/20 03:46:35;;;;;;;9.63;5.30;;;;;;;15.85;82.56;98403.16;4186201;28;20481;-72
2022/08/20 03:48:36;;;;;;;6.60;5.07;;;;;;;15.86;82.36;98401.16;4182727;28;20041;-72
2022/08/20 03:50:36;;;;;;;7.47;4.40;;;;;;;15.89;81.86;98398.34;4185579;28;20059;-72
2022/08/20 03:52:36;;;;;;;8.52;5.15;;;;;;;15.97;81.30;98404.59;4184305;28;20045;-71
2022/08/20 03:54:37;;;;;;;11.20;5.03;;;;;;;15.98;81.22;98414.59;4185647;28;20051;-72
2022/08/20 03:56:37;;;;;;;10.98;4.90;;;;;;;16.01;81.27;98408.16;4185096;28;20283;-72
2022/08/20 03:58:38;;;;;;;8.38;5.22;;;;;;;15.98;81.41;98407.00;4184816;28;20140;-72
2022/08/20 04:00:45;;;;;;;10.30;4.55;;;;;;;16.04;80.70;98410.13;4186399;28;20074;-71
2022/08/20 04:02:45;;;;;;;7.60;4.88;;;;;;;16.10;80.86;98416.81;4184236;28;20167;-72
2022/08/20 04:04:47;;;;;;;10.65;4.72;;;;;;;16.04;81.25;98406.53;4184826;28;20459;-72
2022/08/20 04:06:47;;;;;;;10.88;5.47;;;;;;;15.99;81.76;98411.38;4185167;28;20128;-72
2022/08/20 04:08:47;;;;;;;9.52;5.63;;;;;;;15.85;82.28;98408.72;4184735;28;20080;-72
2022/08/20 04:10:49;;;;;;;11.68;5.55;;;;;;;15.71;82.67;98408.88;4184829;28;20107;-72
2022/08/20 04:12:50;;;;;;;15.57;5.78;;;;;;;15.59;83.38;98415.75;4184743;28;20109;-72
2022/08/20 04:14:51;;;;;;;12.52;5.07;;;;;;;15.51;83.81;98419.81;4185067;28;20494;-72
2022/08/20 04:16:51;;;;;;;14.93;4.88;;;;;;;15.42;84.37;98416.72;4185651;28;20055;-72
2022/08/20 04:18:52;;;;;;;12.50;5.88;;;;;;;15.40;83.46;98419.13;4182630;28;20127;-72
2022/08/20 04:20:53;;;;;;;15.35;5.70;;;;;;;15.40;83.76;98428.28;4186056;28;20048;-72
2022/08/20 04:22:55;;;;;;;30.23;7.30;;;;;;;15.36;84.07;98421.13;4185415;28;20047;-72
2022/08/20 04:24:56;;;;;;;18.00;5.80;;;;;;;15.32;84.12;98418.38;4184531;28;20051;-72
2022/08/20 04:26:57;;;;;;;27.50;6.82;;;;;;;15.31;84.12;98416.00;4185579;28;20131;-72
2022/08/20 04:28:58;;;;;;;13.98;5.72;;;;;;;15.29;84.01;98421.97;4185495;28;20070;-72
2022/08/20 04:30:59;;;;;;;11.63;5.43;;;;;;;15.30;83.83;98422.78;4184565;28;20055;-72
2022/08/20 04:33:00;;;;;;;10.05;5.22;;;;;;;15.26;84.05;98413.66;4184955;28;20045;-72
2022/08/20 04:35:06;;;;;;;7.35;5.43;;;;;;;15.26;83.94;98428.38;4185259;28;20339;-71
2022/08/20 04:37:06;;;;;;;10.43;5.95;;;;;;;15.25;83.92;98417.66;4185911;28;20283;-72
2022/08/20 04:39:07;;;;;;;9.13;5.00;;;;;;;15.24;84.17;98430.00;4187460;28;20075;-71
2022/08/20 04:41:07;;;;;;;7.53;4.90;;;;;;;15.22;83.97;98424.81;4188432;28;20091;-71
2022/08/20 04:43:08;;;;;;;6.57;4.50;;;;;;;15.28;83.68;98425.19;4188555;28;20528;-72
2022/08/20 04:45:08;;;;;;;8.68;4.68;;;;;;;15.34;83.30;98431.91;4185077;28;20279;-71
2022/08/20 04:47:09;;;;;;;9.15;5.28;;;;;;;15.35;83.54;98427.91;4187814;28;20381;-71
2022/08/20 04:49:09;;;;;;;6.07;4.63;;;;;;;15.34;83.16;98429.13;4186690;28;20204;-71
2022/08/20 04:51:13;;;;;;;6.10;4.72;;;;;;;15.37;83.21;98434.66;4187987;28;20055;-72
2022/08/20 04:53:16;;;;;;;9.73;5.07;;;;;;;15.41;82.29;98438.22;4187884;28;20044;-72
2022/08/20 04:55:18;;;;;;;5.68;4.95;;;;;;;15.43;82.73;98430.22;4187902;28;20048;-72
2022/08/20 04:57:18;;;;;;;9.65;5.70;;;;;;;15.42;83.07;98436.22;4188823;28;20048;-71
2022/08/20 04:59:18;;;;;;;6.13;5.00;;;;;;;15.43;83.23;98437.81;4188042;28;20142;-72
2022/08/20 05:01:19;;;;;;;5.95;5.35;;;;;;;15.41;83.55;98443.00;4187511;28;20056;-71
2022/08/20 05:03:20;;;;;;;10.70;5.50;;;;;;;15.40;84.07;98435.84;4185746;28;20385;-71
2022/08/20 05:05:21;;;;;;;10.88;5.80;;;;;;;15.39;84.20;98437.03;4187946;28;20353;-71
2022/08/20 05:07:21;;;;;;;9.65;5.38;;;;;;;15.42;84.01;98450.94;4188364;28;20044;-72
2022/08/20 05:09:21;;;;;;;13.18;5.50;;;;;;;15.44;84.03;98444.97;4188264;28;20141;-71
2022/08/20 05:11:23;;;;;;;7.13;5.40;;;;;;;15.46;83.38;98439.75;4188099;28;20045;-72
2022/08/20 05:13:25;;;;;;;7.73;5.37;;;;;;;15.50;83.67;98454.47;4188050;28;20129;-72
2022/08/20 05:15:26;;;;;;;10.63;6.40;;;;;;;15.54;83.58;98458.00;4187268;28;20344;-72
2022/08/20 05:17:26;;;;;;;11.25;5.75;;;;;;;15.53;84.00;98458.44;4188489;28;20048;-71
2022/08/20 05:19:27;;;;;;;6.38;5.30;;;;;;;15.54;83.52;98460.78;4187830;28;20053;-71
2022/08/20 05:21:28;;;;;;;10.88;6.28;;;;;;;15.56;83.19;98468.78;4187099;28;20094;-71
2022/08/20 05:23:28;;;;;;;9.18;5.28;;;;;;;15.60;83.15;98469.53;4188772;28;20472;-71
2022/08/20 05:25:30;;;;;;;9.80;6.10;;;;;;;15.62;83.21;98461.56;4185286;28;20040;-72
2022/08/20 05:27:31;;;;;;;7.18;5.05;;;;;;;15.62;83.21;98465.13;4187424;28;20048;-72
2022/08/20 05:29:31;;;;;;;8.93;5.10;;;;;;;15.67;82.85;98466.69;4185489;28;20049;-71
2022/08/20 05:31:33;;;;;;;6.97;5.03;;;;;;;15.69;82.69;98467.88;4187588;28;20381;-72
2022/08/20 05:33:35;;;;;;;5.82;5.22;;;;;;;15.70;82.94;98460.28;4186036;28;20459;-72
2022/08/20 05:35:38;;;;;;;5.73;4.63;;;;;;;15.72;82.75;98469.84;4187096;28;20084;-72
2022/08/20 05:37:42;;;;;;;9.65;5.45;;;;;;;15.78;82.54;98472.16;4187607;28;20554;-72
2022/08/20 05:39:43;;;;;;;6.53;5.72;;;;;;;15.81;82.40;98471.38;4186458;28;20066;-72
2022/08/20 05:41:44;;;;;;;5.82;5.20;;;;;;;15.86;81.35;98471.69;4187344;28;20132;-71
2022/08/20 05:43:44;;;;;;;7.40;5.20;;;;;;;15.96;80.76;98472.78;4186538;28;20064;-71
2022/08/20 05:45:46;;;;;;;6.93;5.25;;;;;;;16.04;80.97;98467.94;4187639;28;20048;-71
2022/08/20 05:47:47;;;;;;;7.13;4.95;;;;;;;16.09;81.59;98482.22;4181742;28;20436;-72
2022/08/20 05:49:47;;;;;;;6.47;4.53;;;;;;;16.08;81.81;98483.44;4181258;28;20040;-71
2022/08/20 05:51:50;;;;;;;8.80;6.00;;;;;;;16.08;82.24;98474.28;4186477;28;20110;-71
2022/08/20 05:53:50;;;;;;;;;;;;;;;16.12;82.07;98472.22;4184607;28;20393;-72
2022/08/20 05:55:51;;;;;;;10.03;6.50;;;;;;;16.15;81.64;98477.78;4186040;28;19921;-71
2022/08/20 05:58:00;;;;;;;9.02;6.05;;;;;;;16.20;81.71;98482.91;4183036;28;20311;-71
2022/08/20 06:00:05;;;;;;;8.32;6.55;;;;;;;16.23;81.86;98473.72;4184696;28;20484;-71
2022/08/20 06:04:23;;;;;;;7.22;6.28;;;;;;;16.31;81.50;98470.84;4181543;28;20069;-71
2022/08/20 06:04:30;;;;;;;8.13;6.38;;;;;;;16.37;81.50;98467.16;4181987;28;20052;-71
2022/08/20 06:06:32;;;;;;;8.32;6.55;;;;;;;16.38;81.26;98465.94;4185000;28;20503;-71
2022/08/20 06:08:33;;;;;;;8.50;6.72;;;;;;;16.39;81.52;98466.75;4185242;28;20046;-71
2022/08/20 06:10:35;;;;;;;9.98;6.68;;;;;;;16.43;81.75;98467.50;4183616;28;20156;-72
2022/08/20 06:12:36;;;;;;;8.13;6.53;;;;;;;16.47;81.64;98471.03;4185491;28;20059;-71
2022/08/20 06:14:36;;;;;;;9.18;7.20;;;;;;;16.50;81.75;98479.38;4184389;28;20072;-72
2022/08/20 06:16:37;;;;;;;8.23;6.60;;;;;;;16.51;82.18;98478.16;4183768;28;20040;-71
2022/08/20 06:18:37;;;;;;;9.38;6.85;;;;;;;16.55;81.95;98475.34;4184512;28;20118;-72
2022/08/20 06:20:38;;;;;;;8.25;6.65;;;;;;;16.60;81.96;98479.66;4184258;28;20132;-72
2022/08/20 06:22:38;;;;;;;10.95;7.60;;;;;;;16.68;82.28;98484.72;4183870;28;20059;-72
2022/08/20 06:24:39;;;;;;;10.10;7.57;;;;;;;16.72;82.38;98482.72;4183870;28;20041;-71
2022/08/20 06:26:39;;;;;;;10.00;7.13;;;;;;;16.76;82.29;98491.84;4183736;28;20109;-72
2022/08/20 06:28:40;;;;;;;11.50;7.10;;;;;;;16.82;81.67;98492.97;4184129;28;20434;-72
2022/08/20 06:30:40;;;;;;;12.07;8.30;;;;;;;16.89;82.23;98491.28;4178057;28;20052;-71
2022/08/20 06:32:40;;;;;;;12.27;7.88;;;;;;;16.97;82.09;98498.38;4184496;28;20047;-72
2022/08/20 06:34:41;;;;;;;10.95;8.60;;;;;;;17.04;82.14;98489.84;4123171;28;20090;-72
2022/08/20 06:36:41;;;;;;;12.75;8.73;;;;;;;17.13;82.18;98482.56;4183829;28;20063;-72
2022/08/20 06:38:42;;;;;;;13.38;8.65;;;;;;;17.21;82.11;98482.41;4182087;28;20032;-72
2022/08/20 06:40:42;;;;;;;14.15;8.70;;;;;;;17.30;82.26;98480.69;4184195;28;20048;-72
2022/08/20 06:42:44;;;;;;;15.25;9.57;;;;;;;17.37;81.90;98480.56;4182897;28;20496;-72
2022/08/20 06:44:48;;;;;;;14.65;9.40;;;;;;;17.47;81.83;98478.03;4183277;28;20048;-71
2022/08/20 06:46:48;;;;;;;14.35;10.07;;;;;;;17.55;81.67;98471.13;4183738;28;20079;-72
2022/08/20 06:48:50;;;;;;;16.02;10.27;;;;;;;17.63;81.96;98475.38;4183596;28;20442;-72
2022/08/20 06:50:50;;;;;;;14.40;9.63;;;;;;;17.68;80.91;98472.88;4182929;28;20040;-72
2022/08/20 06:52:50;;;;;;;13.82;9.50;;;;;;;17.76;80.89;98476.38;4183331;28;20424;-72
2022/08/20 06:54:51;;;;;;;14.32;9.45;;;;;;;17.86;81.50;98483.00;4184137;28;20048;-72
2022/08/20 06:56:53;;;;;;;13.27;10.40;;;;;;;17.93;80.41;98483.66;4180395;28;20036;-72
2022/08/20 06:58:53;;;;;;;13.38;10.65;;;;;;;17.99;80.64;98481.16;4185110;28;20028;-72
2022/08/20 07:00:54;;;;;;;16.88;11.25;;;;;;;18.08;79.75;98495.38;4182655;28;20047;-71
2022/08/20 07:02:54;;;;;;;14.98;10.82;;;;;;;18.12;79.82;98492.50;4181030;28;20616;-72
2022/08/20 07:04:55;;;;;;;13.90;9.73;;;;;;;18.17;79.34;98492.81;4183713;28;20127;-72
2022/08/20 07:06:56;;;;;;;12.98;10.30;;;;;;;18.24;79.36;98495.50;4182648;28;20040;-72
2022/08/20 07:08:56;;;;;;;15.70;10.95;;;;;;;18.35;79.18;98498.06;4185128;28;20113;-72
2022/08/20 07:10:58;;;;;;;16.35;11.82;;;;;;;18.40;78.46;98497.59;4155548;28;20057;-72
2022/08/20 07:12:59;;;;;;;14.95;11.48;;;;;;;18.51;78.16;98497.38;4176287;28;20127;-71
2022/08/20 07:14:59;;;;;;;17.00;12.35;;;;;;;18.58;78.79;98485.22;4183068;28;20045;-72
2022/08/20 07:17:02;;;;;;;16.23;11.38;;;;;;;18.64;77.89;98489.13;4183289;28;20033;-72
2022/08/20 07:19:03;;;;;;;14.82;11.25;;;;;;;18.74;78.20;98493.72;4183071;28;20043;-72
2022/08/20 07:21:03;;;;;;;16.80;12.88;;;;;;;18.74;77.80;98490.94;4182971;28;20472;-72
2022/08/20 07:23:04;;;;;;;16.92;12.77;;;;;;;18.83;77.76;98493.94;4184527;28;20048;-72
2022/08/20 07:25:07;;;;;;;17.40;12.95;;;;;;;18.92;78.05;98496.16;4182277;28;20369;-72
2022/08/20 07:27:07;;;;;;;19.25;14.05;;;;;;;19.01;77.78;98494.34;4184660;28;20045;-72
2022/08/20 07:29:07;;;;;;;17.38;14.68;;;;;;;19.16;77.72;98500.41;4183633;28;20044;-72
2022/08/20 07:33:28;;;;;;;19.17;14.93;;;;;;;19.31;76.71;98490.44;4184826;28;20219;-72
2022/08/20 07:35:28;;;;;;;16.77;14.00;;;;;;;19.43;76.64;98491.75;4185458;28;20045;-72
2022/08/20 07:37:29;;;;;;;17.00;13.95;;;;;;;19.47;76.73;98495.28;4186407;28;20060;-72
2022/08/20 07:39:29;;;;;;;18.08;14.73;;;;;;;19.62;76.29;98488.13;4183975;28;20286;-72
2022/08/20 07:41:29;;;;;;;20.60;14.82;;;;;;;19.70;76.19;98494.38;4184653;28;20048;-72
2022/08/20 07:43:31;;;;;;;18.88;14.93;;;;;;;19.72;75.87;98499.53;4184206;28;20055;-72
2022/08/20 07:45:33;;;;;;;19.80;15.40;;;;;;;19.83;75.64;98503.66;4183093;28;20063;-72
2022/08/20 07:47:34;;;;;;;19.33;14.65;;;;;;;19.89;75.39;98504.69;4184519;28;20044;-72
2022/08/20 07:49:39;;;;;;;19.38;14.55;;;;;;;20.03;75.36;98511.97;4182795;28;20060;-72
2022/08/20 07:51:39;;;;;;;22.80;16.17;;;;;;;20.13;74.51;98507.31;4182912;28;20098;-72
2022/08/20 07:53:40;;;;;;;22.65;14.73;;;;;;;20.24;74.98;98502.19;4185076;28;20664;-72
2022/08/20 07:55:41;;;;;;;19.50;14.02;;;;;;;20.32;74.36;98503.56;4185506;28;20083;-72
2022/08/20 07:57:44;;;;;;;18.60;14.73;;;;;;;20.51;74.02;98509.50;4185173;28;20052;-72
2022/08/20 07:59:45;;;;;;;17.85;14.43;;;;;;;20.62;73.40;98515.63;4179861;28;20048;-72
2022/08/20 08:01:45;;;;;;;17.50;15.05;;;;;;;20.55;72.72;98513.81;4182216;28;20434;-72
2022/08/20 08:03:46;;;;;;;19.52;15.38;;;;;;;20.57;73.33;98511.34;4182084;28;20064;-72
2022/08/20 08:05:50;;;;;;;19.48;14.95;;;;;;;20.71;73.48;98518.59;4181751;28;20052;-72
2022/08/20 08:07:51;;;;;;;24.60;15.55;;;;;;;20.62;73.49;98513.59;4179565;28;20469;-72
2022/08/20 08:09:52;;;;;;;20.67;15.05;;;;;;;20.62;73.39;98516.41;4180132;28;20044;-72
2022/08/20 08:11:56;;;;;;;22.35;15.13;;;;;;;20.60;73.38;98512.47;4180245;28;20040;-72
2022/08/20 08:13:58;;;;;;;19.48;14.07;;;;;;;20.70;72.96;98517.78;4181780;28;20742;-72
2022/08/20 08:16:00;;;;;;;19.30;14.23;;;;;;;20.63;73.17;98509.56;4184394;28;20044;-72
2022/08/20 08:18:07;;;;;;;20.25;14.73;;;;;;;20.81;72.66;98516.69;4179624;28;20147;-72
2022/08/20 08:20:08;;;;;;;19.70;14.75;;;;;;;20.89;72.24;98509.63;4180980;28;20029;-72
2022/08/20 08:22:11;;;;;;;20.65;13.90;;;;;;;21.05;72.47;98515.16;4183637;28;20082;-72
2022/08/20 08:24:12;;;;;;;20.67;14.70;;;;;;;21.03;71.32;98504.38;4182095;28;20334;-72
2022/08/20 08:26:14;;;;;;;18.13;14.20;;;;;;;21.11;72.01;98504.16;4182245;28;20465;-72
2022/08/20 08:28:14;;;;;;;17.30;13.77;;;;;;;21.23;70.76;98512.59;4181893;28;20041;-72
2022/08/20 08:30:16;;;;;;;16.30;13.15;;;;;;;21.27;70.59;98509.72;4177468;28;20079;-72
2022/08/20 08:32:16;;;;;;;21.73;15.00;;;;;;;21.21;70.19;98526.31;4181360;28;20033;-72
2022/08/20 08:34:16;;;;;;;17.35;13.13;;;;;;;21.12;70.72;98511.34;4181383;28;20559;-72
2022/08/20 08:36:17;;;;;;;24.17;14.75;;;;;;;21.16;70.20;98523.28;4184628;28;20453;-72
2022/08/20 08:38:18;;;;;;;19.42;14.07;;;;;;;21.13;70.51;98513.72;4181633;28;20044;-72
2022/08/20 08:40:20;;;;;;;18.75;14.27;;;;;;;21.34;70.25;98525.56;4184410;28;20468;-72
2022/08/20 08:42:43;;;;;;;17.83;13.48;;;;;;;21.42;70.56;98524.88;4184297;28;20021;-72
2022/08/20 08:44:43;;;;;;;23.20;14.20;;;;;;;21.42;70.32;98519.25;4183348;28;20128;-72
2022/08/20 08:46:47;;;;;;;19.33;13.60;;;;;;;21.43;70.23;98529.31;4181836;28;20444;-72
2022/08/20 08:48:52;;;;;;;20.30;14.20;;;;;;;21.40;70.24;98518.16;4180482;28;20072;-72
2022/08/20 08:50:52;;;;;;;19.70;14.55;;;;;;;21.46;69.98;98528.41;4181454;28;20048;-72
2022/08/20 08:52:59;;;;;;;22.08;15.88;;;;;;;21.40;70.70;98535.81;4184931;28;20041;-72
2022/08/20 08:55:05;;;;;;;20.52;15.68;;;;;;;21.38;71.01;98529.06;4184291;28;20534;-72
2022/08/20 08:57:08;;;;;;;23.58;14.50;;;;;;;21.34;70.43;98536.81;4182692;28;20052;-72
2022/08/20 08:59:09;;;;;;;19.02;14.65;;;;;;;21.32;70.50;98534.47;4182794;28;20047;-72
2022/08/20 09:01:13;;;;;;;17.27;14.52;;;;;;;21.30;70.78;98537.72;4182746;28;20594;-72
2022/08/20 09:03:32;;;;;;;20.35;15.57;;;;;;;21.26;71.13;98533.41;4182354;28;20033;-72
2022/08/20 09:05:48;;;;;;;23.83;18.50;;;;;;;21.01;71.74;98539.78;4183028;28;20488;-72
2022/08/20 09:07:52;;;;;;;30.33;25.80;;;;;;;21.01;71.71;98540.56;4184617;28;20489;-72
2022/08/20 09:09:52;;;;;;;41.22;28.67;;;;;;;21.07;71.81;98542.84;4183542;28;20051;-72
2022/08/20 09:11:55;;;;;;;38.88;28.60;;;;;;;21.09;71.76;98546.00;4185188;28;20048;-72
2022/08/20 09:13:56;;;;;;;22.90;16.08;;;;;;;20.94;71.91;98542.84;4184288;28;20060;-72
2022/08/20 09:15:57;;;;;;;20.25;14.13;;;;;;;21.09;71.65;98546.00;4184359;28;20041;-72
2022/08/20 09:17:57;;;;;;;20.67;15.40;;;;;;;21.07;71.54;98549.25;4184003;28;20230;-72
2022/08/20 09:19:58;;;;;;;20.65;15.50;;;;;;;21.03;71.58;98537.34;4184747;28;20033;-72
2022/08/20 09:21:58;;;;;;;19.65;15.25;;;;;;;20.99;71.83;98547.88;4184940;28;20139;-72
2022/08/20 09:23:58;;;;;;;24.13;15.93;;;;;;;21.00;71.77;98543.84;4185774;28;20120;-72
2022/08/20 09:25:59;;;;;;;23.38;15.25;;;;;;;21.01;71.28;98548.22;4187725;28;20045;-72
2022/08/20 09:27:59;;;;;;;24.02;15.55;;;;;;;21.01;71.21;98546.19;4187002;28;20115;-72
2022/08/20 09:29:59;;;;;;;17.17;14.20;;;;;;;21.09;71.39;98546.00;4188073;28;20062;-72
2022/08/20 09:32:09;;;;;;;18.02;14.50;;;;;;;21.06;71.24;98546.91;4187354;28;20499;-72